sensor_id;sensor_type;location;lat;lon;timestamp;P1;durP1;ratioP1;P2;durP2;ratioP2
62616;SDS011;62539;51.190;6.808;2023-02-28T00:00:46;1.75;;;1.10;;
62616;SDS011;62539;51.190;6.808;2023-02-28T00:03:11;2.50;;;1.40;;
62616;SDS011;62539;51.190;6.808;2023-02-28T00:05:37;4.88;;;1.15;;
62616;SDS011;62539;51.190;6.808;2023-02-28T00:08:02;2.35;;;1.35;;
62616;SDS011;62539;51.190;6.808;2023-02-28T00:10:29;2.22;;;1.00;;
62616;SDS011;62539;51.190;6.808;2023-02-28T00:12:58;2.33;;;1.20;;
62616;SDS011;62539;51.190;6.808;2023-02-28T00:15:28;1.50;;;1.05;;
62616;SDS011;62539;51.190;6.808;2023-02-28T00:17:54;1.23;;;1.10;;
62616;SDS011;62539;51.190;6.808;2023-02-28T00:20:20;3.50;;;1.00;;
62616;SDS011;62539;51.190;6.808;2023-02-28T00:22:46;2.88;;;1.20;;
62616;SDS011;62539;51.190;6.808;2023-02-28T00:25:16;1.50;;;0.90;;
62616;SDS011;62539;51.190;6.808;2023-02-28T00:27:46;2.75;;;1.20;;
62616;SDS011;62539;51.190;6.808;2023-02-28T00:30:13;2.28;;;1.30;;
62616;SDS011;62539;51.190;6.808;2023-02-28T00:32:42;1.70;;;1.20;;
62616;SDS011;62539;51.190;6.808;2023-02-28T00:35:08;1.85;;;1.20;;
62616;SDS011;62539;51.190;6.808;2023-02-28T00:37:35;1.27;;;1.05;;
62616;SDS011;62539;51.190;6.808;2023-02-28T00:40:00;1.30;;;1.00;;
62616;SDS011;62539;51.190;6.808;2023-02-28T00:42:29;1.15;;;1.00;;
62616;SDS011;62539;51.190;6.808;2023-02-28T00:44:55;2.65;;;1.25;;
62616;SDS011;62539;51.190;6.808;2023-02-28T00:47:20;1.00;;;0.90;;
62616;SDS011;62539;51.190;6.808;2023-02-28T00:49:46;1.00;;;0.90;;
62616;SDS011;62539;51.190;6.808;2023-02-28T00:52:11;4.03;;;1.10;;
62616;SDS011;62539;51.190;6.808;2023-02-28T00:54:37;2.42;;;1.10;;
62616;SDS011;62539;51.190;6.808;2023-02-28T00:57:02;1.42;;;1.08;;
62616;SDS011;62539;51.190;6.808;2023-02-28T00:59:28;2.50;;;1.30;;
62616;SDS011;62539;51.190;6.808;2023-02-28T01:01:53;2.92;;;1.30;;
62616;SDS011;62539;51.190;6.808;2023-02-28T01:04:18;2.08;;;1.10;;
62616;SDS011;62539;51.190;6.808;2023-02-28T01:06:44;1.45;;;1.02;;
62616;SDS011;62539;51.190;6.808;2023-02-28T01:09:09;1.75;;;1.13;;
62616;SDS011;62539;51.190;6.808;2023-02-28T01:11:36;2.17;;;1.45;;
62616;SDS011;62539;51.190;6.808;2023-02-28T01:14:02;1.08;;;0.93;;
62616;SDS011;62539;51.190;6.808;2023-02-28T01:16:29;1.45;;;1.20;;
62616;SDS011;62539;51.190;6.808;2023-02-28T01:18:55;4.43;;;1.30;;
62616;SDS011;62539;51.190;6.808;2023-02-28T01:21:21;1.70;;;1.00;;
62616;SDS011;62539;51.190;6.808;2023-02-28T01:23:47;1.15;;;1.05;;
62616;SDS011;62539;51.190;6.808;2023-02-28T01:26:14;1.08;;;0.90;;
62616;SDS011;62539;51.190;6.808;2023-02-28T01:28:42;1.45;;;1.08;;
62616;SDS011;62539;51.190;6.808;2023-02-28T01:31:08;2.20;;;1.13;;
62616;SDS011;62539;51.190;6.808;2023-02-28T01:33:35;2.10;;;1.17;;
62616;SDS011;62539;51.190;6.808;2023-02-28T01:36:01;1.65;;;1.30;;
62616;SDS011;62539;51.190;6.808;2023-02-28T01:38:31;2.03;;;1.27;;
62616;SDS011;62539;51.190;6.808;2023-02-28T01:40:58;2.78;;;1.10;;
62616;SDS011;62539;51.190;6.808;2023-02-28T01:43:25;3.15;;;1.00;;
62616;SDS011;62539;51.190;6.808;2023-02-28T01:45:57;2.03;;;1.40;;
62616;SDS011;62539;51.190;6.808;2023-02-28T01:48:26;3.05;;;1.35;;
62616;SDS011;62539;51.190;6.808;2023-02-28T01:50:58;1.77;;;1.00;;
62616;SDS011;62539;51.190;6.808;2023-02-28T01:53:34;1.17;;;1.08;;
62616;SDS011;62539;51.190;6.808;2023-02-28T01:56:07;1.42;;;1.17;;
62616;SDS011;62539;51.190;6.808;2023-02-28T01:58:45;1.52;;;1.10;;
62616;SDS011;62539;51.190;6.808;2023-02-28T02:01:13;1.40;;;0.90;;
62616;SDS011;62539;51.190;6.808;2023-02-28T02:03:49;1.80;;;1.20;;
62616;SDS011;62539;51.190;6.808;2023-02-28T02:06:20;1.38;;;1.10;;
62616;SDS011;62539;51.190;6.808;2023-02-28T02:09:08;1.80;;;1.02;;
62616;SDS011;62539;51.190;6.808;2023-02-28T02:11:34;3.83;;;1.20;;
62616;SDS011;62539;51.190;6.808;2023-02-28T02:14:05;2.50;;;1.05;;
62616;SDS011;62539;51.190;6.808;2023-02-28T02:17:01;1.80;;;1.00;;
62616;SDS011;62539;51.190;6.808;2023-02-28T02:35:11;1.50;;;1.30;;
62616;SDS011;62539;51.190;6.808;2023-02-28T02:40:38;1.85;;;0.93;;
62616;SDS011;62539;51.190;6.808;2023-02-28T02:43:22;1.83;;;1.10;;
62616;SDS011;62539;51.190;6.808;2023-02-28T02:46:10;1.33;;;0.90;;
62616;SDS011;62539;51.190;6.808;2023-02-28T02:48:45;2.25;;;1.10;;
62616;SDS011;62539;51.190;6.808;2023-02-28T02:51:14;1.42;;;1.00;;
62616;SDS011;62539;51.190;6.808;2023-02-28T02:53:52;1.45;;;0.90;;
62616;SDS011;62539;51.190;6.808;2023-02-28T02:56:55;1.67;;;0.90;;
62616;SDS011;62539;51.190;6.808;2023-02-28T02:59:27;2.13;;;1.00;;
62616;SDS011;62539;51.190;6.808;2023-02-28T03:01:56;1.67;;;1.10;;
62616;SDS011;62539;51.190;6.808;2023-02-28T03:04:27;1.17;;;0.85;;
62616;SDS011;62539;51.190;6.808;2023-02-28T03:06:58;2.83;;;1.10;;
62616;SDS011;62539;51.190;6.808;2023-02-28T03:09:24;1.85;;;1.10;;
62616;SDS011;62539;51.190;6.808;2023-02-28T03:11:51;1.92;;;1.08;;
62616;SDS011;62539;51.190;6.808;2023-02-28T03:17:16;1.80;;;1.15;;
62616;SDS011;62539;51.190;6.808;2023-02-28T03:26:04;1.10;;;1.00;;
62616;SDS011;62539;51.190;6.808;2023-02-28T03:37:13;2.70;;;1.13;;
62616;SDS011;62539;51.190;6.808;2023-02-28T03:39:53;3.60;;;1.02;;
62616;SDS011;62539;51.190;6.808;2023-02-28T03:42:27;1.50;;;1.08;;
62616;SDS011;62539;51.190;6.808;2023-02-28T03:45:04;2.47;;;1.17;;
62616;SDS011;62539;51.190;6.808;2023-02-28T03:47:39;1.58;;;1.10;;
62616;SDS011;62539;51.190;6.808;2023-02-28T03:50:24;1.83;;;1.08;;
62616;SDS011;62539;51.190;6.808;2023-02-28T03:53:06;1.80;;;1.10;;
62616;SDS011;62539;51.190;6.808;2023-02-28T03:55:39;1.45;;;1.10;;
62616;SDS011;62539;51.190;6.808;2023-02-28T03:58:20;0.95;;;0.90;;
62616;SDS011;62539;51.190;6.808;2023-02-28T04:01:07;1.00;;;0.90;;
62616;SDS011;62539;51.190;6.808;2023-02-28T04:03:40;1.70;;;0.93;;
62616;SDS011;62539;51.190;6.808;2023-02-28T04:06:07;1.00;;;0.90;;
62616;SDS011;62539;51.190;6.808;2023-02-28T04:08:41;0.93;;;0.88;;
62616;SDS011;62539;51.190;6.808;2023-02-28T04:11:08;1.10;;;1.00;;
62616;SDS011;62539;51.190;6.808;2023-02-28T04:13:45;1.75;;;1.40;;
62616;SDS011;62539;51.190;6.808;2023-02-28T04:16:11;1.40;;;1.17;;
62616;SDS011;62539;51.190;6.808;2023-02-28T04:18:37;0.80;;;0.80;;
62616;SDS011;62539;51.190;6.808;2023-02-28T04:21:04;1.20;;;0.93;;
62616;SDS011;62539;51.190;6.808;2023-02-28T04:23:31;1.77;;;0.85;;
62616;SDS011;62539;51.190;6.808;2023-02-28T04:25:56;2.13;;;0.93;;
62616;SDS011;62539;51.190;6.808;2023-02-28T04:28:22;1.10;;;1.00;;
62616;SDS011;62539;51.190;6.808;2023-02-28T04:30:53;5.45;;;0.98;;
62616;SDS011;62539;51.190;6.808;2023-02-28T04:33:24;1.20;;;1.10;;
62616;SDS011;62539;51.190;6.808;2023-02-28T04:35:59;1.55;;;0.90;;
62616;SDS011;62539;51.190;6.808;2023-02-28T04:38:37;1.42;;;1.02;;
62616;SDS011;62539;51.190;6.808;2023-02-28T04:41:04;2.03;;;0.93;;
62616;SDS011;62539;51.190;6.808;2023-02-28T04:43:30;1.00;;;0.90;;
62616;SDS011;62539;51.190;6.808;2023-02-28T04:45:57;1.88;;;1.15;;
62616;SDS011;62539;51.190;6.808;2023-02-28T04:48:30;0.90;;;0.90;;
62616;SDS011;62539;51.190;6.808;2023-02-28T04:51:03;1.45;;;1.15;;
62616;SDS011;62539;51.190;6.808;2023-02-28T04:53:32;1.75;;;0.93;;
62616;SDS011;62539;51.190;6.808;2023-02-28T04:55:59;1.45;;;0.95;;
62616;SDS011;62539;51.190;6.808;2023-02-28T04:58:25;1.73;;;0.90;;
62616;SDS011;62539;51.190;6.808;2023-02-28T05:00:51;1.35;;;0.90;;
62616;SDS011;62539;51.190;6.808;2023-02-28T05:03:17;0.95;;;0.73;;
62616;SDS011;62539;51.190;6.808;2023-02-28T05:05:42;2.53;;;0.85;;
62616;SDS011;62539;51.190;6.808;2023-02-28T05:08:07;1.33;;;1.00;;
62616;SDS011;62539;51.190;6.808;2023-02-28T05:10:34;0.75;;;0.75;;
62616;SDS011;62539;51.190;6.808;2023-02-28T05:13:00;1.17;;;0.90;;
62616;SDS011;62539;51.190;6.808;2023-02-28T05:15:26;1.27;;;0.95;;
62616;SDS011;62539;51.190;6.808;2023-02-28T05:17:51;1.38;;;0.95;;
62616;SDS011;62539;51.190;6.808;2023-02-28T05:20:17;1.52;;;1.00;;
62616;SDS011;62539;51.190;6.808;2023-02-28T05:22:43;2.45;;;1.08;;
62616;SDS011;62539;51.190;6.808;2023-02-28T05:25:13;1.15;;;0.80;;
62616;SDS011;62539;51.190;6.808;2023-02-28T05:27:43;1.88;;;0.88;;
62616;SDS011;62539;51.190;6.808;2023-02-28T05:30:09;1.92;;;1.10;;
62616;SDS011;62539;51.190;6.808;2023-02-28T05:32:39;0.80;;;0.80;;
62616;SDS011;62539;51.190;6.808;2023-02-28T05:35:11;1.05;;;0.80;;
62616;SDS011;62539;51.190;6.808;2023-02-28T05:37:37;0.70;;;0.70;;
62616;SDS011;62539;51.190;6.808;2023-02-28T05:40:06;1.10;;;0.80;;
62616;SDS011;62539;51.190;6.808;2023-02-28T05:42:35;0.80;;;0.80;;
62616;SDS011;62539;51.190;6.808;2023-02-28T05:45:02;0.75;;;0.75;;
62616;SDS011;62539;51.190;6.808;2023-02-28T05:47:29;1.10;;;0.80;;
62616;SDS011;62539;51.190;6.808;2023-02-28T05:49:56;1.42;;;0.85;;
62616;SDS011;62539;51.190;6.808;2023-02-28T05:52:21;2.42;;;0.88;;
62616;SDS011;62539;51.190;6.808;2023-02-28T05:54:47;2.90;;;0.95;;
62616;SDS011;62539;51.190;6.808;2023-02-28T05:57:12;1.00;;;0.90;;
62616;SDS011;62539;51.190;6.808;2023-02-28T05:59:38;1.02;;;0.70;;
62616;SDS011;62539;51.190;6.808;2023-02-28T06:02:05;2.65;;;0.70;;
62616;SDS011;62539;51.190;6.808;2023-02-28T06:04:35;2.80;;;0.90;;
62616;SDS011;62539;51.190;6.808;2023-02-28T06:07:01;3.42;;;0.85;;
62616;SDS011;62539;51.190;6.808;2023-02-28T06:09:26;1.40;;;1.05;;
62616;SDS011;62539;51.190;6.808;2023-02-28T06:11:52;1.45;;;0.82;;
62616;SDS011;62539;51.190;6.808;2023-02-28T06:14:18;4.90;;;1.20;;
62616;SDS011;62539;51.190;6.808;2023-02-28T06:16:45;2.33;;;1.00;;
62616;SDS011;62539;51.190;6.808;2023-02-28T06:19:11;3.88;;;0.98;;
62616;SDS011;62539;51.190;6.808;2023-02-28T06:21:37;1.25;;;1.10;;
62616;SDS011;62539;51.190;6.808;2023-02-28T06:24:03;5.00;;;1.20;;
62616;SDS011;62539;51.190;6.808;2023-02-28T06:26:29;1.55;;;0.93;;
62616;SDS011;62539;51.190;6.808;2023-02-28T06:28:55;4.20;;;1.10;;
62616;SDS011;62539;51.190;6.808;2023-02-28T06:31:21;8.75;;;1.45;;
62616;SDS011;62539;51.190;6.808;2023-02-28T06:33:47;2.53;;;1.00;;
62616;SDS011;62539;51.190;6.808;2023-02-28T06:36:14;3.17;;;1.10;;
62616;SDS011;62539;51.190;6.808;2023-02-28T06:38:41;2.05;;;1.30;;
62616;SDS011;62539;51.190;6.808;2023-02-28T06:41:07;3.47;;;1.30;;
62616;SDS011;62539;51.190;6.808;2023-02-28T06:43:39;6.47;;;1.23;;
62616;SDS011;62539;51.190;6.808;2023-02-28T06:46:07;3.70;;;1.00;;
62616;SDS011;62539;51.190;6.808;2023-02-28T06:48:37;1.45;;;1.05;;
62616;SDS011;62539;51.190;6.808;2023-02-28T06:51:20;3.63;;;1.00;;
62616;SDS011;62539;51.190;6.808;2023-02-28T06:53:47;2.55;;;1.17;;
62616;SDS011;62539;51.190;6.808;2023-02-28T06:56:14;6.07;;;1.02;;
62616;SDS011;62539;51.190;6.808;2023-02-28T06:58:42;1.27;;;1.02;;
62616;SDS011;62539;51.190;6.808;2023-02-28T07:01:15;4.05;;;1.30;;
62616;SDS011;62539;51.190;6.808;2023-02-28T07:03:41;2.85;;;1.10;;
62616;SDS011;62539;51.190;6.808;2023-02-28T07:06:06;3.60;;;1.35;;
62616;SDS011;62539;51.190;6.808;2023-02-28T07:08:32;5.45;;;1.33;;
62616;SDS011;62539;51.190;6.808;2023-02-28T07:11:00;3.58;;;1.17;;
62616;SDS011;62539;51.190;6.808;2023-02-28T07:13:27;3.25;;;1.27;;
62616;SDS011;62539;51.190;6.808;2023-02-28T07:15:56;5.25;;;1.33;;
62616;SDS011;62539;51.190;6.808;2023-02-28T07:18:27;2.97;;;1.00;;
62616;SDS011;62539;51.190;6.808;2023-02-28T07:20:53;4.45;;;1.20;;
62616;SDS011;62539;51.190;6.808;2023-02-28T07:23:19;3.25;;;1.10;;
62616;SDS011;62539;51.190;6.808;2023-02-28T07:25:44;4.05;;;1.48;;
62616;SDS011;62539;51.190;6.808;2023-02-28T07:28:10;1.85;;;1.10;;
62616;SDS011;62539;51.190;6.808;2023-02-28T07:30:36;5.55;;;1.20;;
62616;SDS011;62539;51.190;6.808;2023-02-28T07:33:02;1.65;;;0.95;;
62616;SDS011;62539;51.190;6.808;2023-02-28T07:35:28;3.78;;;1.10;;
62616;SDS011;62539;51.190;6.808;2023-02-28T07:37:54;3.55;;;1.00;;
62616;SDS011;62539;51.190;6.808;2023-02-28T07:40:19;4.93;;;1.17;;
62616;SDS011;62539;51.190;6.808;2023-02-28T07:42:44;4.63;;;1.20;;
62616;SDS011;62539;51.190;6.808;2023-02-28T07:45:10;1.52;;;1.00;;
62616;SDS011;62539;51.190;6.808;2023-02-28T07:47:37;2.67;;;1.40;;
62616;SDS011;62539;51.190;6.808;2023-02-28T07:50:07;2.45;;;1.10;;
62616;SDS011;62539;51.190;6.808;2023-02-28T07:52:37;2.03;;;1.10;;
62616;SDS011;62539;51.190;6.808;2023-02-28T07:55:04;1.48;;;0.80;;
62616;SDS011;62539;51.190;6.808;2023-02-28T07:57:31;4.45;;;1.27;;
62616;SDS011;62539;51.190;6.808;2023-02-28T07:59:57;3.00;;;1.27;;
62616;SDS011;62539;51.190;6.808;2023-02-28T08:02:22;5.10;;;1.08;;
62616;SDS011;62539;51.190;6.808;2023-02-28T08:04:48;3.00;;;1.08;;
62616;SDS011;62539;51.190;6.808;2023-02-28T08:07:14;9.52;;;1.42;;
62616;SDS011;62539;51.190;6.808;2023-02-28T08:09:41;3.42;;;1.10;;
62616;SDS011;62539;51.190;6.808;2023-02-28T08:12:07;1.80;;;1.00;;
62616;SDS011;62539;51.190;6.808;2023-02-28T08:14:34;2.72;;;1.10;;
62616;SDS011;62539;51.190;6.808;2023-02-28T08:17:00;3.67;;;1.08;;
62616;SDS011;62539;51.190;6.808;2023-02-28T08:19:26;2.10;;;1.00;;
62616;SDS011;62539;51.190;6.808;2023-02-28T08:21:51;2.28;;;1.30;;
62616;SDS011;62539;51.190;6.808;2023-02-28T08:24:17;1.33;;;0.90;;
62616;SDS011;62539;51.190;6.808;2023-02-28T08:26:42;0.85;;;0.75;;
62616;SDS011;62539;51.190;6.808;2023-02-28T08:29:08;1.73;;;0.90;;
62616;SDS011;62539;51.190;6.808;2023-02-28T08:31:33;2.65;;;0.95;;
62616;SDS011;62539;51.190;6.808;2023-02-28T08:34:00;2.45;;;0.90;;
62616;SDS011;62539;51.190;6.808;2023-02-28T08:36:31;1.50;;;1.00;;
62616;SDS011;62539;51.190;6.808;2023-02-28T08:38:57;1.77;;;0.80;;
62616;SDS011;62539;51.190;6.808;2023-02-28T08:41:23;2.70;;;1.45;;
62616;SDS011;62539;51.190;6.808;2023-02-28T08:43:48;3.38;;;1.00;;
62616;SDS011;62539;51.190;6.808;2023-02-28T08:46:14;2.40;;;1.08;;
62616;SDS011;62539;51.190;6.808;2023-02-28T08:48:39;1.10;;;0.70;;
62616;SDS011;62539;51.190;6.808;2023-02-28T08:51:06;0.90;;;0.82;;
62616;SDS011;62539;51.190;6.808;2023-02-28T08:53:36;5.85;;;0.80;;
62616;SDS011;62539;51.190;6.808;2023-02-28T08:56:10;0.82;;;0.70;;
62616;SDS011;62539;51.190;6.808;2023-02-28T08:58:39;1.30;;;0.73;;
62616;SDS011;62539;51.190;6.808;2023-02-28T09:01:12;0.80;;;0.80;;
62616;SDS011;62539;51.190;6.808;2023-02-28T09:03:47;1.38;;;0.95;;
62616;SDS011;62539;51.190;6.808;2023-02-28T09:06:14;1.95;;;1.00;;
62616;SDS011;62539;51.190;6.808;2023-02-28T09:08:41;2.35;;;0.80;;
62616;SDS011;62539;51.190;6.808;2023-02-28T09:11:08;1.67;;;0.80;;
62616;SDS011;62539;51.190;6.808;2023-02-28T09:13:35;1.17;;;0.70;;
62616;SDS011;62539;51.190;6.808;2023-02-28T09:16:02;1.23;;;0.88;;
62616;SDS011;62539;51.190;6.808;2023-02-28T09:18:30;2.83;;;1.00;;
62616;SDS011;62539;51.190;6.808;2023-02-28T09:20:55;3.47;;;1.10;;
62616;SDS011;62539;51.190;6.808;2023-02-28T09:23:22;0.70;;;0.70;;
62616;SDS011;62539;51.190;6.808;2023-02-28T09:25:50;0.60;;;0.52;;
62616;SDS011;62539;51.190;6.808;2023-02-28T09:28:19;1.08;;;0.60;;
62616;SDS011;62539;51.190;6.808;2023-02-28T09:30:46;1.10;;;0.70;;
62616;SDS011;62539;51.190;6.808;2023-02-28T09:33:15;1.23;;;0.80;;
62616;SDS011;62539;51.190;6.808;2023-02-28T09:35:45;1.58;;;0.88;;
62616;SDS011;62539;51.190;6.808;2023-02-28T09:38:11;1.98;;;0.80;;
62616;SDS011;62539;51.190;6.808;2023-02-28T09:40:37;0.70;;;0.70;;
62616;SDS011;62539;51.190;6.808;2023-02-28T09:43:09;1.73;;;0.70;;
62616;SDS011;62539;51.190;6.808;2023-02-28T09:45:39;0.80;;;0.70;;
62616;SDS011;62539;51.190;6.808;2023-02-28T09:48:10;3.08;;;0.90;;
62616;SDS011;62539;51.190;6.808;2023-02-28T09:50:46;1.05;;;0.88;;
62616;SDS011;62539;51.190;6.808;2023-02-28T09:55:59;0.60;;;0.60;;
62616;SDS011;62539;51.190;6.808;2023-02-28T09:58:53;1.30;;;0.73;;
62616;SDS011;62539;51.190;6.808;2023-02-28T10:01:40;2.15;;;0.73;;
62616;SDS011;62539;51.190;6.808;2023-02-28T10:07:11;1.40;;;0.70;;
62616;SDS011;62539;51.190;6.808;2023-02-28T10:09:47;2.08;;;0.90;;
62616;SDS011;62539;51.190;6.808;2023-02-28T10:12:20;0.93;;;0.60;;
62616;SDS011;62539;51.190;6.808;2023-02-28T10:14:47;1.05;;;0.73;;
62616;SDS011;62539;51.190;6.808;2023-02-28T10:17:21;2.15;;;0.80;;
62616;SDS011;62539;51.190;6.808;2023-02-28T10:25:23;1.48;;;0.68;;
62616;SDS011;62539;51.190;6.808;2023-02-28T10:30:30;0.95;;;0.60;;
62616;SDS011;62539;51.190;6.808;2023-02-28T10:32:56;0.80;;;0.52;;
62616;SDS011;62539;51.190;6.808;2023-02-28T10:35:25;0.55;;;0.52;;
62616;SDS011;62539;51.190;6.808;2023-02-28T10:37:55;1.33;;;0.90;;
62616;SDS011;62539;51.190;6.808;2023-02-28T10:45:36;0.60;;;0.60;;
62616;SDS011;62539;51.190;6.808;2023-02-28T10:50:58;1.45;;;0.70;;
62616;SDS011;62539;51.190;6.808;2023-02-28T10:53:30;0.77;;;0.50;;
62616;SDS011;62539;51.190;6.808;2023-02-28T11:04:11;1.20;;;0.75;;
62616;SDS011;62539;51.190;6.808;2023-02-28T11:07:21;0.80;;;0.50;;
62616;SDS011;62539;51.190;6.808;2023-02-28T11:09:50;0.65;;;0.52;;
62616;SDS011;62539;51.190;6.808;2023-02-28T11:15:00;2.30;;;0.60;;
62616;SDS011;62539;51.190;6.808;2023-02-28T11:17:31;0.88;;;0.65;;
62616;SDS011;62539;51.190;6.808;2023-02-28T11:19:59;1.17;;;0.60;;
62616;SDS011;62539;51.190;6.808;2023-02-28T11:22:32;0.50;;;0.50;;
62616;SDS011;62539;51.190;6.808;2023-02-28T11:25:09;0.45;;;0.45;;
62616;SDS011;62539;51.190;6.808;2023-02-28T11:27:48;1.42;;;0.60;;
62616;SDS011;62539;51.190;6.808;2023-02-28T11:30:23;2.00;;;0.57;;
62616;SDS011;62539;51.190;6.808;2023-02-28T11:36:02;0.65;;;0.50;;
62616;SDS011;62539;51.190;6.808;2023-02-28T11:38:36;0.50;;;0.50;;
62616;SDS011;62539;51.190;6.808;2023-02-28T11:44:05;3.45;;;0.40;;
62616;SDS011;62539;51.190;6.808;2023-02-28T11:52:38;0.40;;;0.40;;
62616;SDS011;62539;51.190;6.808;2023-02-28T11:58:21;1.05;;;0.63;;
62616;SDS011;62539;51.190;6.808;2023-02-28T12:06:55;1.02;;;0.60;;
62616;SDS011;62539;51.190;6.808;2023-02-28T12:09:49;0.50;;;0.50;;
62616;SDS011;62539;51.190;6.808;2023-02-28T12:24:36;0.50;;;0.50;;
62616;SDS011;62539;51.190;6.808;2023-02-28T12:27:27;0.68;;;0.50;;
62616;SDS011;62539;51.190;6.808;2023-02-28T12:30:32;0.85;;;0.50;;
62616;SDS011;62539;51.190;6.808;2023-02-28T12:32:56;0.47;;;0.47;;
62616;SDS011;62539;51.190;6.808;2023-02-28T12:35:43;0.65;;;0.60;;
62616;SDS011;62539;51.190;6.808;2023-02-28T12:38:25;0.70;;;0.45;;
62616;SDS011;62539;51.190;6.808;2023-02-28T12:41:16;0.90;;;0.60;;
62616;SDS011;62539;51.190;6.808;2023-02-28T12:44:07;0.70;;;0.55;;
62616;SDS011;62539;51.190;6.808;2023-02-28T12:46:47;0.50;;;0.50;;
62616;SDS011;62539;51.190;6.808;2023-02-28T12:49:22;0.63;;;0.40;;
62616;SDS011;62539;51.190;6.808;2023-02-28T12:51:56;0.50;;;0.50;;
62616;SDS011;62539;51.190;6.808;2023-02-28T12:54:28;0.40;;;0.40;;
62616;SDS011;62539;51.190;6.808;2023-02-28T13:00:25;1.30;;;0.70;;
62616;SDS011;62539;51.190;6.808;2023-02-28T13:09:18;1.95;;;0.57;;
62616;SDS011;62539;51.190;6.808;2023-02-28T13:11:45;1.60;;;0.60;;
62616;SDS011;62539;51.190;6.808;2023-02-28T13:14:37;0.70;;;0.40;;
62616;SDS011;62539;51.190;6.808;2023-02-28T13:19:44;6.03;;;0.73;;
62616;SDS011;62539;51.190;6.808;2023-02-28T13:22:37;1.80;;;0.70;;
62616;SDS011;62539;51.190;6.808;2023-02-28T13:27:46;0.73;;;0.50;;
62616;SDS011;62539;51.190;6.808;2023-02-28T13:33:25;4.03;;;0.80;;
62616;SDS011;62539;51.190;6.808;2023-02-28T13:36:22;2.53;;;0.70;;
62616;SDS011;62539;51.190;6.808;2023-02-28T13:38:52;4.85;;;0.68;;
62616;SDS011;62539;51.190;6.808;2023-02-28T13:46:31;2.35;;;0.60;;
62616;SDS011;62539;51.190;6.808;2023-02-28T13:51:51;0.90;;;0.70;;
62616;SDS011;62539;51.190;6.808;2023-02-28T14:07:15;2.83;;;0.90;;
62616;SDS011;62539;51.190;6.808;2023-02-28T14:09:58;1.50;;;0.70;;
62616;SDS011;62539;51.190;6.808;2023-02-28T14:21:01;3.00;;;0.90;;
62616;SDS011;62539;51.190;6.808;2023-02-28T14:27:11;4.43;;;0.88;;
62616;SDS011;62539;51.190;6.808;2023-02-28T14:32:54;5.25;;;0.73;;
62616;SDS011;62539;51.190;6.808;2023-02-28T14:36:06;3.60;;;0.75;;
62616;SDS011;62539;51.190;6.808;2023-02-28T14:38:59;7.13;;;1.20;;
62616;SDS011;62539;51.190;6.808;2023-02-28T14:41:33;7.00;;;0.90;;
62616;SDS011;62539;51.190;6.808;2023-02-28T14:44:13;4.22;;;1.00;;
62616;SDS011;62539;51.190;6.808;2023-02-28T14:47:01;2.73;;;0.70;;
62616;SDS011;62539;51.190;6.808;2023-02-28T14:49:32;4.07;;;1.02;;
62616;SDS011;62539;51.190;6.808;2023-02-28T14:54:35;9.43;;;1.20;;
62616;SDS011;62539;51.190;6.808;2023-02-28T14:57:02;13.10;;;0.98;;
62616;SDS011;62539;51.190;6.808;2023-02-28T14:59:31;5.88;;;1.02;;
62616;SDS011;62539;51.190;6.808;2023-02-28T15:04:57;5.22;;;0.90;;
62616;SDS011;62539;51.190;6.808;2023-02-28T15:08:00;7.30;;;0.98;;
62616;SDS011;62539;51.190;6.808;2023-02-28T15:10:38;6.82;;;0.90;;
62616;SDS011;62539;51.190;6.808;2023-02-28T15:16:15;3.50;;;0.90;;
62616;SDS011;62539;51.190;6.808;2023-02-28T15:19:00;3.53;;;0.80;;
62616;SDS011;62539;51.190;6.808;2023-02-28T15:21:31;3.35;;;0.90;;
62616;SDS011;62539;51.190;6.808;2023-02-28T15:26:42;3.13;;;0.80;;
62616;SDS011;62539;51.190;6.808;2023-02-28T15:29:16;4.68;;;1.00;;
62616;SDS011;62539;51.190;6.808;2023-02-28T15:31:57;3.92;;;1.00;;
62616;SDS011;62539;51.190;6.808;2023-02-28T15:34:37;2.83;;;0.80;;
62616;SDS011;62539;51.190;6.808;2023-02-28T15:37:28;13.32;;;1.27;;
62616;SDS011;62539;51.190;6.808;2023-02-28T15:40:24;10.30;;;1.10;;
62616;SDS011;62539;51.190;6.808;2023-02-28T15:43:07;13.18;;;1.35;;
62616;SDS011;62539;51.190;6.808;2023-02-28T15:45:46;12.20;;;2.35;;
62616;SDS011;62539;51.190;6.808;2023-02-28T15:48:22;14.32;;;3.75;;
62616;SDS011;62539;51.190;6.808;2023-02-28T15:53:58;37.03;;;8.38;;
62616;SDS011;62539;51.190;6.808;2023-02-28T15:56:43;32.00;;;10.98;;
62616;SDS011;62539;51.190;6.808;2023-02-28T15:59:15;40.22;;;11.25;;
62616;SDS011;62539;51.190;6.808;2023-02-28T16:02:03;31.00;;;11.25;;
62616;SDS011;62539;51.190;6.808;2023-02-28T16:04:35;35.30;;;10.05;;
62616;SDS011;62539;51.190;6.808;2023-02-28T16:07:05;32.78;;;9.27;;
62616;SDS011;62539;51.190;6.808;2023-02-28T16:09:36;26.38;;;8.18;;
62616;SDS011;62539;51.190;6.808;2023-02-28T16:12:02;20.95;;;7.93;;
62616;SDS011;62539;51.190;6.808;2023-02-28T16:14:29;24.98;;;7.45;;
62616;SDS011;62539;51.190;6.808;2023-02-28T16:17:02;28.05;;;7.35;;
62616;SDS011;62539;51.190;6.808;2023-02-28T16:19:31;15.50;;;6.75;;
62616;SDS011;62539;51.190;6.808;2023-02-28T16:21:57;24.83;;;6.72;;
62616;SDS011;62539;51.190;6.808;2023-02-28T16:24:23;15.73;;;6.00;;
62616;SDS011;62539;51.190;6.808;2023-02-28T16:26:50;18.92;;;5.50;;
62616;SDS011;62539;51.190;6.808;2023-02-28T16:29:21;18.15;;;5.88;;
62616;SDS011;62539;51.190;6.808;2023-02-28T16:31:53;12.25;;;5.50;;
62616;SDS011;62539;51.190;6.808;2023-02-28T16:34:19;17.50;;;5.03;;
62616;SDS011;62539;51.190;6.808;2023-02-28T16:36:48;11.88;;;4.68;;
62616;SDS011;62539;51.190;6.808;2023-02-28T16:39:15;14.10;;;4.35;;
62616;SDS011;62539;51.190;6.808;2023-02-28T16:41:44;17.58;;;4.45;;
62616;SDS011;62539;51.190;6.808;2023-02-28T16:44:13;12.23;;;3.80;;
62616;SDS011;62539;51.190;6.808;2023-02-28T16:49:18;12.68;;;3.95;;
62616;SDS011;62539;51.190;6.808;2023-02-28T16:51:43;15.13;;;4.18;;
62616;SDS011;62539;51.190;6.808;2023-02-28T16:54:08;11.10;;;4.75;;
62616;SDS011;62539;51.190;6.808;2023-02-28T16:56:34;9.32;;;4.15;;
62616;SDS011;62539;51.190;6.808;2023-02-28T16:59:00;10.85;;;3.50;;
62616;SDS011;62539;51.190;6.808;2023-02-28T17:01:27;8.98;;;3.58;;
62616;SDS011;62539;51.190;6.808;2023-02-28T17:03:53;13.95;;;3.90;;
62616;SDS011;62539;51.190;6.808;2023-02-28T17:06:21;11.43;;;3.90;;
62616;SDS011;62539;51.190;6.808;2023-02-28T17:08:50;10.68;;;3.45;;
62616;SDS011;62539;51.190;6.808;2023-02-28T17:11:16;8.00;;;3.45;;
62616;SDS011;62539;51.190;6.808;2023-02-28T17:13:43;13.60;;;3.97;;
62616;SDS011;62539;51.190;6.808;2023-02-28T17:16:13;10.15;;;3.45;;
62616;SDS011;62539;51.190;6.808;2023-02-28T17:18:56;6.97;;;2.97;;
62616;SDS011;62539;51.190;6.808;2023-02-28T17:21:24;8.65;;;3.28;;
62616;SDS011;62539;51.190;6.808;2023-02-28T17:23:50;6.65;;;2.75;;
62616;SDS011;62539;51.190;6.808;2023-02-28T17:26:16;12.88;;;3.25;;
62616;SDS011;62539;51.190;6.808;2023-02-28T17:28:45;7.63;;;2.90;;
62616;SDS011;62539;51.190;6.808;2023-02-28T17:31:14;8.57;;;3.17;;
62616;SDS011;62539;51.190;6.808;2023-02-28T17:33:40;9.57;;;3.00;;
62616;SDS011;62539;51.190;6.808;2023-02-28T17:36:05;13.68;;;3.55;;
62616;SDS011;62539;51.190;6.808;2023-02-28T17:38:36;9.18;;;2.90;;
62616;SDS011;62539;51.190;6.808;2023-02-28T17:41:01;8.90;;;3.08;;
62616;SDS011;62539;51.190;6.808;2023-02-28T17:43:27;8.10;;;2.65;;
62616;SDS011;62539;51.190;6.808;2023-02-28T17:45:53;7.40;;;2.83;;
62616;SDS011;62539;51.190;6.808;2023-02-28T17:48:19;6.38;;;2.88;;
62616;SDS011;62539;51.190;6.808;2023-02-28T17:50:44;6.85;;;2.55;;
62616;SDS011;62539;51.190;6.808;2023-02-28T17:53:10;5.50;;;2.40;;
62616;SDS011;62539;51.190;6.808;2023-02-28T17:55:36;6.85;;;2.60;;
62616;SDS011;62539;51.190;6.808;2023-02-28T17:58:02;7.25;;;2.65;;
62616;SDS011;62539;51.190;6.808;2023-02-28T18:00:28;6.47;;;2.35;;